Terminal Aerodrome Forecast
Issued by NWS Sioux Falls, SD

Home | Current Version | Previous Version | Graphics & Text | Print | Product List | Glossary On
Versions: 1 2 3 4 5 6 7 8 9 10 11 12 13 14 15
000
FTUS43 KFSD 220529
TAFFSD
TAF
KFSD 220529Z 2206/2306 31005KT P6SM OVC010
     FM220700 31005KT P6SM OVC008
     FM221700 31009KT P6SM OVC010
     FM222000 31010KT P6SM OVC020
     FM230000 31008KT P6SM OVC015
     FM230500 30007KT P6SM BKN025=

USA.gov is the U.S. government's official web portal to all federal, state and local government web resources and services.